Manoel Urbano, Brazil
Current Conditions -  °F | °C
As of 7:00 PM on Thursday 30 Oct 2014 (Local Time) from SBTK Reporting Station
Thunderstorm Thunderstorm  
Wind Chill: 77°   Ceiling: 9000
Heat Index: 78°   Visibility: 3mi
Dew Point: 75°   Wind: 17mph
Humidity: 94%   Direction: 330°NNW
Pressure: NA   Gusts: NA
Location:  8.84°S, 69.26°W
Report Text: SBTK 302300Z 33015KT 5000 -TSRA SCT015 FEW030CB OVC090 25/24 Q1008
Loading
Personal Weather Stations






























Interactive Weather Map
Tropical Storm Tracking
New forecast layout! Learn more

10-Day Weather Forecast

Advertisements
Track Severe Weather on mobile